Accueil
METAR-TAF:

METAR-TAF

Aéroports :

Aéroport de Milaga

Tripoli, Libye

latitude: 32-54N, longitude: 13-17E, altitude: 11 m

Observation

Le bulletin a été fait il y a 54 minutes, à 21:55 UTC
Vent 5 kt de est/nord-est
Température 23°C
Humidité 78%
Pression 1018 hPa
Nuages épars à une hauteur de 2500 ft

METAR: HLLM 202155Z 07005KT SCT025 23/19 Q1018

Heure: 00:49 (22:49 UTC)

Prévision

Le bulletin a été fait il y a 11 heures et 49 minutes, à 11:00 UTC
Prévision valable du 20 à 12 UTC au 21 à 12 UTC
Vent 10 kt de nord/nord-est
Visibilité: 8000 m
Nuages épars à une hauteur de 2500 ft
Evoluant progressivement
du 20 à 16 UTC au 20 à 18 UTC
Vent 2 kt de direction variable

TAF: HLLM 201100Z 2012/2112 02010KT 8000 SCT025 BECMG 2016/2018 VRB02KT

Observations et prévisions météorologiques de plus de 4000 aéroports (messages METAR et TAF).

Les stations disponibles sont représentées par des disques jaunes et rouges sur la carte.

Passer la souris dessus pour voir le nom de la station.

Cliquer dessus pour voir les observations et prévisions météorologiques.

Pour changer de carte: cliquez sur les boutons verts avec une croix noire pour zoomer, sur le bouton vert avec un tiret pour effectuer un zoom arrière, ou sur les flèches vertes pour les cartes adjacentes.


METAR-TAF: